sensor_id;sensor_type;location;lat;lon;timestamp;pressure;altitude;pressure_sealevel;temperature;humidity
70027;BME280;57506;50.092;15.804;2023-02-13T00:01:30;101112.34;;;3.27;100.00
70027;BME280;57506;50.092;15.804;2023-02-13T00:03:55;101105.53;;;3.23;100.00
70027;BME280;57506;50.092;15.804;2023-02-13T00:06:21;101108.94;;;3.25;100.00
70027;BME280;57506;50.092;15.804;2023-02-13T00:08:47;101109.13;;;3.22;100.00
70027;BME280;57506;50.092;15.804;2023-02-13T00:11:13;101096.50;;;3.11;100.00
70027;BME280;57506;50.092;15.804;2023-02-13T00:13:38;101122.94;;;3.14;100.00
70027;BME280;57506;50.092;15.804;2023-02-13T00:16:04;101114.00;;;3.15;100.00
70027;BME280;57506;50.092;15.804;2023-02-13T00:18:33;101120.19;;;3.15;100.00
70027;BME280;57506;50.092;15.804;2023-02-13T00:21:08;101126.47;;;3.14;100.00
70027;BME280;57506;50.092;15.804;2023-02-13T00:23:35;101107.56;;;3.05;100.00
70027;BME280;57506;50.092;15.804;2023-02-13T00:26:07;101114.50;;;3.07;100.00
70027;BME280;57506;50.092;15.804;2023-02-13T00:28:33;101108.72;;;3.01;100.00
70027;BME280;57506;50.092;15.804;2023-02-13T00:31:25;101105.75;;;3.05;100.00
70027;BME280;57506;50.092;15.804;2023-02-13T00:33:50;101095.38;;;3.01;100.00
70027;BME280;57506;50.092;15.804;2023-02-13T00:36:19;101092.34;;;2.93;100.00
70027;BME280;57506;50.092;15.804;2023-02-13T00:38:45;101080.97;;;2.91;100.00
70027;BME280;57506;50.092;15.804;2023-02-13T00:41:12;101090.19;;;2.85;100.00
70027;BME280;57506;50.092;15.804;2023-02-13T00:43:38;101100.47;;;2.91;100.00
70027;BME280;57506;50.092;15.804;2023-02-13T00:46:04;101119.66;;;2.96;100.00
70027;BME280;57506;50.092;15.804;2023-02-13T00:48:31;101121.34;;;2.97;100.00
70027;BME280;57506;50.092;15.804;2023-02-13T00:50:57;101122.72;;;2.90;100.00
70027;BME280;57506;50.092;15.804;2023-02-13T00:53:24;101125.66;;;2.86;100.00
70027;BME280;57506;50.092;15.804;2023-02-13T00:55:50;101129.38;;;2.83;100.00
70027;BME280;57506;50.092;15.804;2023-02-13T00:58:16;101114.00;;;2.74;100.00
70027;BME280;57506;50.092;15.804;2023-02-13T01:00:42;101123.88;;;2.86;100.00
70027;BME280;57506;50.092;15.804;2023-02-13T01:03:08;101126.44;;;2.88;100.00
70027;BME280;57506;50.092;15.804;2023-02-13T01:05:34;101120.19;;;2.74;100.00
70027;BME280;57506;50.092;15.804;2023-02-13T01:07:59;101119.69;;;2.68;100.00
70027;BME280;57506;50.092;15.804;2023-02-13T01:10:25;101120.84;;;2.64;100.00
70027;BME280;57506;50.092;15.804;2023-02-13T01:12:51;101131.00;;;2.71;100.00
70027;BME280;57506;50.092;15.804;2023-02-13T01:15:17;101129.69;;;2.64;100.00
70027;BME280;57506;50.092;15.804;2023-02-13T01:17:43;101126.84;;;2.53;100.00
70027;BME280;57506;50.092;15.804;2023-02-13T01:20:10;101128.25;;;2.44;100.00
70027;BME280;57506;50.092;15.804;2023-02-13T01:22:36;101128.66;;;2.38;100.00
70027;BME280;57506;50.092;15.804;2023-02-13T01:25:02;101108.66;;;2.31;100.00
70027;BME280;57506;50.092;15.804;2023-02-13T01:27:27;101097.25;;;2.29;100.00
70027;BME280;57506;50.092;15.804;2023-02-13T01:29:53;101099.94;;;2.29;100.00
70027;BME280;57506;50.092;15.804;2023-02-13T01:32:19;101102.31;;;2.34;100.00
70027;BME280;57506;50.092;15.804;2023-02-13T01:34:45;101112.59;;;2.40;100.00
70027;BME280;57506;50.092;15.804;2023-02-13T01:37:10;101102.41;;;2.32;100.00
70027;BME280;57506;50.092;15.804;2023-02-13T01:39:36;101107.19;;;2.41;100.00
70027;BME280;57506;50.092;15.804;2023-02-13T01:42:02;101106.78;;;2.47;100.00
70027;BME280;57506;50.092;15.804;2023-02-13T01:44:54;101106.88;;;2.46;100.00
70027;BME280;57506;50.092;15.804;2023-02-13T01:47:25;101108.47;;;2.49;100.00
70027;BME280;57506;50.092;15.804;2023-02-13T01:49:58;101098.03;;;2.45;100.00
70027;BME280;57506;50.092;15.804;2023-02-13T01:52:27;101085.66;;;2.44;100.00
70027;BME280;57506;50.092;15.804;2023-02-13T01:54:53;101088.44;;;2.57;100.00
70027;BME280;57506;50.092;15.804;2023-02-13T01:57:21;101079.22;;;2.49;100.00
70027;BME280;57506;50.092;15.804;2023-02-13T02:00:01;101077.22;;;2.52;100.00
70027;BME280;57506;50.092;15.804;2023-02-13T02:02:30;101074.66;;;2.51;100.00
70027;BME280;57506;50.092;15.804;2023-02-13T02:04:58;101065.91;;;2.49;100.00
70027;BME280;57506;50.092;15.804;2023-02-13T02:07:26;101086.81;;;2.55;100.00
70027;BME280;57506;50.092;15.804;2023-02-13T02:09:55;101076.38;;;2.52;100.00
70027;BME280;57506;50.092;15.804;2023-02-13T02:12:31;101089.00;;;2.48;100.00
70027;BME280;57506;50.092;15.804;2023-02-13T02:14:59;101098.50;;;2.52;100.00
70027;BME280;57506;50.092;15.804;2023-02-13T02:17:26;101072.69;;;2.40;100.00
70027;BME280;57506;50.092;15.804;2023-02-13T02:20:07;101099.38;;;2.38;100.00
70027;BME280;57506;50.092;15.804;2023-02-13T02:28:24;101099.75;;;2.46;100.00
70027;BME280;57506;50.092;15.804;2023-02-13T02:36:34;101073.06;;;2.34;100.00
70027;BME280;57506;50.092;15.804;2023-02-13T02:39:45;101095.94;;;2.65;100.00
70027;BME280;57506;50.092;15.804;2023-02-13T02:57:51;101091.81;;;1.88;100.00
70027;BME280;57506;50.092;15.804;2023-02-13T03:00:41;101083.50;;;1.94;100.00
70027;BME280;57506;50.092;15.804;2023-02-13T03:03:27;101076.91;;;1.86;100.00
70027;BME280;57506;50.092;15.804;2023-02-13T03:06:38;101086.03;;;1.96;100.00
70027;BME280;57506;50.092;15.804;2023-02-13T03:09:09;101067.63;;;1.93;100.00
70027;BME280;57506;50.092;15.804;2023-02-13T03:11:56;101072.56;;;1.99;100.00
70027;BME280;57506;50.092;15.804;2023-02-13T03:14:41;101059.25;;;1.99;100.00
70027;BME280;57506;50.092;15.804;2023-02-13T03:17:10;101062.31;;;2.07;100.00
70027;BME280;57506;50.092;15.804;2023-02-13T03:24:24;101053.31;;;2.09;100.00
70027;BME280;57506;50.092;15.804;2023-02-13T03:30:17;101069.16;;;2.25;100.00
70027;BME280;57506;50.092;15.804;2023-02-13T03:41:28;101081.69;;;1.95;100.00
70027;BME280;57506;50.092;15.804;2023-02-13T03:46:50;101097.13;;;1.88;100.00
70027;BME280;57506;50.092;15.804;2023-02-13T03:49:23;101066.44;;;1.83;100.00
70027;BME280;57506;50.092;15.804;2023-02-13T03:55:16;101087.75;;;1.97;100.00
70027;BME280;57506;50.092;15.804;2023-02-13T03:58:14;101084.13;;;1.98;100.00
70027;BME280;57506;50.092;15.804;2023-02-13T04:01:01;101076.91;;;2.00;100.00
70027;BME280;57506;50.092;15.804;2023-02-13T04:06:15;101083.25;;;1.83;100.00
70027;BME280;57506;50.092;15.804;2023-02-13T04:08:41;101091.16;;;1.99;100.00
70027;BME280;57506;50.092;15.804;2023-02-13T04:11:36;101070.47;;;2.04;100.00
70027;BME280;57506;50.092;15.804;2023-02-13T04:14:07;101068.66;;;1.90;100.00
70027;BME280;57506;50.092;15.804;2023-02-13T04:16:48;101066.09;;;1.89;100.00
70027;BME280;57506;50.092;15.804;2023-02-13T04:19:16;101059.75;;;1.91;100.00
70027;BME280;57506;50.092;15.804;2023-02-13T04:21:42;101067.22;;;1.99;100.00
70027;BME280;57506;50.092;15.804;2023-02-13T04:24:08;101061.06;;;1.98;100.00
70027;BME280;57506;50.092;15.804;2023-02-13T04:26:39;101074.00;;;2.04;100.00
70027;BME280;57506;50.092;15.804;2023-02-13T04:29:05;101055.38;;;2.04;100.00
70027;BME280;57506;50.092;15.804;2023-02-13T04:31:31;101057.75;;;2.09;100.00
70027;BME280;57506;50.092;15.804;2023-02-13T04:33:56;101028.50;;;2.09;100.00
70027;BME280;57506;50.092;15.804;2023-02-13T04:36:22;101028.00;;;2.45;100.00
70027;BME280;57506;50.092;15.804;2023-02-13T04:38:47;101033.09;;;2.62;100.00
70027;BME280;57506;50.092;15.804;2023-02-13T04:41:13;101027.59;;;2.51;100.00
70027;BME280;57506;50.092;15.804;2023-02-13T04:43:38;101016.41;;;2.46;100.00
70027;BME280;57506;50.092;15.804;2023-02-13T04:46:04;101041.16;;;2.61;100.00
70027;BME280;57506;50.092;15.804;2023-02-13T04:48:29;101021.06;;;2.57;100.00
70027;BME280;57506;50.092;15.804;2023-02-13T04:50:55;101035.38;;;2.68;100.00
70027;BME280;57506;50.092;15.804;2023-02-13T04:53:21;101026.53;;;2.68;100.00
70027;BME280;57506;50.092;15.804;2023-02-13T04:55:46;101019.88;;;2.75;100.00
70027;BME280;57506;50.092;15.804;2023-02-13T04:58:12;101028.88;;;2.87;100.00
70027;BME280;57506;50.092;15.804;2023-02-13T05:00:37;101006.03;;;2.83;100.00
70027;BME280;57506;50.092;15.804;2023-02-13T05:03:05;101007.09;;;2.80;100.00
70027;BME280;57506;50.092;15.804;2023-02-13T05:05:31;101013.16;;;3.09;100.00
70027;BME280;57506;50.092;15.804;2023-02-13T05:07:57;101024.06;;;3.19;100.00
70027;BME280;57506;50.092;15.804;2023-02-13T05:10:22;101040.94;;;3.32;100.00
70027;BME280;57506;50.092;15.804;2023-02-13T05:12:48;101036.13;;;2.97;100.00
70027;BME280;57506;50.092;15.804;2023-02-13T05:15:13;101039.50;;;2.87;100.00
70027;BME280;57506;50.092;15.804;2023-02-13T05:17:42;101040.72;;;2.95;100.00
70027;BME280;57506;50.092;15.804;2023-02-13T05:20:08;101029.28;;;2.66;100.00
70027;BME280;57506;50.092;15.804;2023-02-13T05:22:34;101016.00;;;2.52;100.00
70027;BME280;57506;50.092;15.804;2023-02-13T05:25:18;101033.84;;;2.64;100.00
70027;BME280;57506;50.092;15.804;2023-02-13T05:27:43;101023.22;;;2.64;100.00
70027;BME280;57506;50.092;15.804;2023-02-13T05:30:09;101044.59;;;2.63;100.00
70027;BME280;57506;50.092;15.804;2023-02-13T05:32:35;101049.06;;;2.62;100.00
70027;BME280;57506;50.092;15.804;2023-02-13T05:35:01;101041.41;;;2.58;100.00
70027;BME280;57506;50.092;15.804;2023-02-13T05:37:26;101048.22;;;2.76;100.00
70027;BME280;57506;50.092;15.804;2023-02-13T05:39:52;101027.63;;;2.78;100.00
70027;BME280;57506;50.092;15.804;2023-02-13T05:42:17;101019.34;;;2.83;100.00
70027;BME280;57506;50.092;15.804;2023-02-13T05:44:42;101035.34;;;2.83;100.00
70027;BME280;57506;50.092;15.804;2023-02-13T05:47:08;101026.91;;;2.76;100.00
70027;BME280;57506;50.092;15.804;2023-02-13T05:49:33;101038.75;;;2.85;100.00
70027;BME280;57506;50.092;15.804;2023-02-13T05:51:59;101005.34;;;2.66;100.00
70027;BME280;57506;50.092;15.804;2023-02-13T05:54:24;101033.72;;;2.80;100.00
70027;BME280;57506;50.092;15.804;2023-02-13T05:56:50;101051.13;;;2.86;100.00
70027;BME280;57506;50.092;15.804;2023-02-13T05:59:15;101030.00;;;2.83;100.00
70027;BME280;57506;50.092;15.804;2023-02-13T06:01:41;101038.19;;;2.79;100.00
70027;BME280;57506;50.092;15.804;2023-02-13T06:04:06;101042.13;;;2.74;100.00
70027;BME280;57506;50.092;15.804;2023-02-13T06:06:32;101018.06;;;2.61;100.00
70027;BME280;57506;50.092;15.804;2023-02-13T06:08:58;101021.16;;;2.55;100.00
70027;BME280;57506;50.092;15.804;2023-02-13T06:11:23;101058.47;;;2.68;100.00
70027;BME280;57506;50.092;15.804;2023-02-13T06:13:49;101046.88;;;2.69;100.00
70027;BME280;57506;50.092;15.804;2023-02-13T06:16:14;101056.47;;;2.71;100.00
70027;BME280;57506;50.092;15.804;2023-02-13T06:18:40;101047.56;;;2.58;100.00
70027;BME280;57506;50.092;15.804;2023-02-13T06:21:06;101071.53;;;2.58;100.00
70027;BME280;57506;50.092;15.804;2023-02-13T06:23:32;101060.88;;;2.58;100.00
70027;BME280;57506;50.092;15.804;2023-02-13T06:26:05;101059.63;;;2.64;100.00
70027;BME280;57506;50.092;15.804;2023-02-13T06:28:31;101061.13;;;2.68;100.00
70027;BME280;57506;50.092;15.804;2023-02-13T06:30:56;101052.56;;;2.63;100.00
70027;BME280;57506;50.092;15.804;2023-02-13T06:33:22;101054.88;;;2.69;100.00
70027;BME280;57506;50.092;15.804;2023-02-13T06:35:47;101059.03;;;2.73;100.00
70027;BME280;57506;50.092;15.804;2023-02-13T06:38:13;101064.06;;;2.77;100.00
70027;BME280;57506;50.092;15.804;2023-02-13T06:40:38;101068.66;;;2.75;100.00
70027;BME280;57506;50.092;15.804;2023-02-13T06:43:04;101043.94;;;2.73;100.00
70027;BME280;57506;50.092;15.804;2023-02-13T06:45:30;101065.22;;;2.73;100.00
70027;BME280;57506;50.092;15.804;2023-02-13T06:47:55;101059.41;;;2.67;100.00
70027;BME280;57506;50.092;15.804;2023-02-13T06:50:21;101058.47;;;2.68;100.00
70027;BME280;57506;50.092;15.804;2023-02-13T06:52:48;101066.84;;;2.76;100.00
70027;BME280;57506;50.092;15.804;2023-02-13T06:55:14;101069.31;;;2.65;100.00
70027;BME280;57506;50.092;15.804;2023-02-13T06:57:41;101077.59;;;2.74;100.00
70027;BME280;57506;50.092;15.804;2023-02-13T07:00:07;101076.72;;;2.74;100.00
70027;BME280;57506;50.092;15.804;2023-02-13T07:02:37;101075.88;;;2.73;100.00
70027;BME280;57506;50.092;15.804;2023-02-13T07:05:03;101083.53;;;2.78;100.00
70027;BME280;57506;50.092;15.804;2023-02-13T07:07:34;101080.88;;;2.78;100.00
70027;BME280;57506;50.092;15.804;2023-02-13T07:10:01;101083.91;;;2.86;100.00
70027;BME280;57506;50.092;15.804;2023-02-13T07:12:27;101092.66;;;2.88;100.00
70027;BME280;57506;50.092;15.804;2023-02-13T07:14:53;101089.16;;;2.88;100.00
70027;BME280;57506;50.092;15.804;2023-02-13T07:17:19;101078.59;;;2.86;100.00
70027;BME280;57506;50.092;15.804;2023-02-13T07:19:44;101090.44;;;2.95;100.00
70027;BME280;57506;50.092;15.804;2023-02-13T07:22:10;101096.34;;;3.00;100.00
70027;BME280;57506;50.092;15.804;2023-02-13T07:24:36;101096.91;;;3.05;100.00
70027;BME280;57506;50.092;15.804;2023-02-13T07:27:03;101078.94;;;2.94;100.00
70027;BME280;57506;50.092;15.804;2023-02-13T07:29:29;101083.88;;;3.00;100.00
70027;BME280;57506;50.092;15.804;2023-02-13T07:31:54;101087.13;;;3.05;100.00
70027;BME280;57506;50.092;15.804;2023-02-13T07:34:20;101071.53;;;2.99;100.00
70027;BME280;57506;50.092;15.804;2023-02-13T07:36:45;101083.28;;;3.09;100.00
70027;BME280;57506;50.092;15.804;2023-02-13T07:39:11;101078.50;;;3.14;100.00
70027;BME280;57506;50.092;15.804;2023-02-13T07:41:37;101093.44;;;3.17;100.00
70027;BME280;57506;50.092;15.804;2023-02-13T07:44:02;101088.03;;;3.19;100.00
70027;BME280;57506;50.092;15.804;2023-02-13T07:46:28;101102.63;;;3.26;100.00
70027;BME280;57506;50.092;15.804;2023-02-13T07:48:53;101090.91;;;3.28;100.00
70027;BME280;57506;50.092;15.804;2023-02-13T07:51:19;101097.66;;;3.34;100.00
70027;BME280;57506;50.092;15.804;2023-02-13T07:53:45;101088.91;;;3.32;100.00
70027;BME280;57506;50.092;15.804;2023-02-13T07:56:10;101088.53;;;3.38;100.00
70027;BME280;57506;50.092;15.804;2023-02-13T07:58:36;101099.94;;;3.40;100.00
70027;BME280;57506;50.092;15.804;2023-02-13T08:01:12;101096.63;;;3.36;100.00
70027;BME280;57506;50.092;15.804;2023-02-13T08:03:38;101102.91;;;3.35;100.00
70027;BME280;57506;50.092;15.804;2023-02-13T08:06:04;101084.72;;;3.28;100.00
70027;BME280;57506;50.092;15.804;2023-02-13T08:08:30;101096.91;;;3.32;100.00
70027;BME280;57506;50.092;15.804;2023-02-13T08:11:36;101093.84;;;3.38;100.00
70027;BME280;57506;50.092;15.804;2023-02-13T08:14:18;101088.94;;;3.44;100.00
70027;BME280;57506;50.092;15.804;2023-02-13T08:16:44;101092.28;;;3.48;100.00
70027;BME280;57506;50.092;15.804;2023-02-13T08:19:09;101074.56;;;3.47;100.00
70027;BME280;57506;50.092;15.804;2023-02-13T08:21:34;101073.84;;;3.58;100.00
70027;BME280;57506;50.092;15.804;2023-02-13T08:24:03;101081.34;;;3.65;100.00
70027;BME280;57506;50.092;15.804;2023-02-13T08:26:30;101075.03;;;3.66;100.00
70027;BME280;57506;50.092;15.804;2023-02-13T08:28:56;101071.72;;;3.63;100.00
70027;BME280;57506;50.092;15.804;2023-02-13T08:31:21;101089.69;;;3.73;100.00
70027;BME280;57506;50.092;15.804;2023-02-13T08:33:47;101070.78;;;3.76;100.00
70027;BME280;57506;50.092;15.804;2023-02-13T08:36:12;101096.50;;;3.90;100.00
70027;BME280;57506;50.092;15.804;2023-02-13T08:38:38;101099.72;;;3.95;100.00
70027;BME280;57506;50.092;15.804;2023-02-13T08:41:03;101081.91;;;3.96;100.00
70027;BME280;57506;50.092;15.804;2023-02-13T08:43:29;101087.78;;;4.13;100.00
70027;BME280;57506;50.092;15.804;2023-02-13T08:45:58;101090.56;;;4.25;100.00
70027;BME280;57506;50.092;15.804;2023-02-13T08:48:25;101085.63;;;4.44;100.00
70027;BME280;57506;50.092;15.804;2023-02-13T08:50:51;101093.66;;;4.31;100.00
70027;BME280;57506;50.092;15.804;2023-02-13T08:53:17;101109.03;;;4.40;100.00
70027;BME280;57506;50.092;15.804;2023-02-13T08:55:53;101103.28;;;4.34;100.00
70027;BME280;57506;50.092;15.804;2023-02-13T08:58:20;101100.16;;;4.40;100.00
70027;BME280;57506;50.092;15.804;2023-02-13T09:00:45;101097.81;;;4.48;100.00
70027;BME280;57506;50.092;15.804;2023-02-13T09:03:11;101096.97;;;4.47;100.00
70027;BME280;57506;50.092;15.804;2023-02-13T09:05:36;101104.84;;;4.62;100.00
70027;BME280;57506;50.092;15.804;2023-02-13T09:08:02;101110.19;;;4.62;100.00
70027;BME280;57506;50.092;15.804;2023-02-13T09:10:29;101107.94;;;4.55;100.00
70027;BME280;57506;50.092;15.804;2023-02-13T09:12:54;101114.25;;;4.54;100.00
70027;BME280;57506;50.092;15.804;2023-02-13T09:15:20;101106.00;;;4.57;100.00
70027;BME280;57506;50.092;15.804;2023-02-13T09:17:46;101099.28;;;4.65;100.00
70027;BME280;57506;50.092;15.804;2023-02-13T09:20:12;101103.09;;;4.86;100.00
70027;BME280;57506;50.092;15.804;2023-02-13T09:22:39;101102.56;;;4.81;100.00
70027;BME280;57506;50.092;15.804;2023-02-13T09:25:05;101118.66;;;4.92;100.00
70027;BME280;57506;50.092;15.804;2023-02-13T09:27:32;101133.69;;;5.06;100.00
70027;BME280;57506;50.092;15.804;2023-02-13T09:29:58;101144.38;;;5.06;100.00
70027;BME280;57506;50.092;15.804;2023-02-13T09:32:24;101139.34;;;5.14;100.00
70027;BME280;57506;50.092;15.804;2023-02-13T09:34:50;101141.97;;;5.26;100.00
70027;BME280;57506;50.092;15.804;2023-02-13T09:37:15;101148.97;;;5.16;100.00
70027;BME280;57506;50.092;15.804;2023-02-13T09:39:41;101148.34;;;5.13;100.00
70027;BME280;57506;50.092;15.804;2023-02-13T09:42:23;101140.91;;;5.29;100.00
70027;BME280;57506;50.092;15.804;2023-02-13T09:44:55;101149.72;;;5.42;100.00
70027;BME280;57506;50.092;15.804;2023-02-13T09:47:30;101141.31;;;5.59;100.00
70027;BME280;57506;50.092;15.804;2023-02-13T09:50:01;101156.81;;;5.67;100.00
70027;BME280;57506;50.092;15.804;2023-02-13T09:52:33;101158.13;;;5.73;100.00
70027;BME280;57506;50.092;15.804;2023-02-13T09:55:57;101178.41;;;5.88;100.00
70027;BME280;57506;50.092;15.804;2023-02-13T10:00:53;101174.09;;;6.33;100.00
70027;BME280;57506;50.092;15.804;2023-02-13T10:03:30;101177.75;;;6.43;100.00
70027;BME280;57506;50.092;15.804;2023-02-13T10:06:07;101192.69;;;6.35;100.00
70027;BME280;57506;50.092;15.804;2023-02-13T10:12:03;101171.16;;;6.36;100.00
70027;BME280;57506;50.092;15.804;2023-02-13T10:19:54;101174.63;;;6.49;100.00
70027;BME280;57506;50.092;15.804;2023-02-13T10:22:36;101165.56;;;6.50;100.00
70027;BME280;57506;50.092;15.804;2023-02-13T10:30:31;101191.69;;;6.93;100.00
70027;BME280;57506;50.092;15.804;2023-02-13T10:35:46;101204.13;;;6.94;100.00
70027;BME280;57506;50.092;15.804;2023-02-13T10:38:19;101206.28;;;7.00;100.00
70027;BME280;57506;50.092;15.804;2023-02-13T10:41:13;101214.09;;;6.92;100.00
70027;BME280;57506;50.092;15.804;2023-02-13T10:47:17;101190.09;;;6.79;100.00
70027;BME280;57506;50.092;15.804;2023-02-13T10:58:11;101194.00;;;6.64;100.00
70027;BME280;57506;50.092;15.804;2023-02-13T11:03:19;101198.72;;;6.72;100.00
70027;BME280;57506;50.092;15.804;2023-02-13T11:05:47;101199.47;;;6.74;100.00
70027;BME280;57506;50.092;15.804;2023-02-13T11:08:20;101198.09;;;6.57;100.00
70027;BME280;57506;50.092;15.804;2023-02-13T11:10:46;101185.34;;;6.60;100.00
70027;BME280;57506;50.092;15.804;2023-02-13T11:13:20;101191.19;;;6.65;100.00
70027;BME280;57506;50.092;15.804;2023-02-13T11:16:03;101188.38;;;6.67;100.00
70027;BME280;57506;50.092;15.804;2023-02-13T11:18:40;101187.78;;;6.63;100.00
70027;BME280;57506;50.092;15.804;2023-02-13T11:21:12;101192.66;;;6.81;100.00
70027;BME280;57506;50.092;15.804;2023-02-13T11:23:48;101178.88;;;6.85;100.00
70027;BME280;57506;50.092;15.804;2023-02-13T11:26:21;101184.00;;;6.99;100.00
70027;BME280;57506;50.092;15.804;2023-02-13T11:29:15;101184.22;;;7.19;100.00
70027;BME280;57506;50.092;15.804;2023-02-13T11:31:36;101180.94;;;7.26;100.00
70027;BME280;57506;50.092;15.804;2023-02-13T11:34:24;101181.19;;;7.23;100.00
70027;BME280;57506;50.092;15.804;2023-02-13T11:39:39;101183.28;;;7.09;100.00
70027;BME280;57506;50.092;15.804;2023-02-13T11:42:16;101184.38;;;7.06;100.00
70027;BME280;57506;50.092;15.804;2023-02-13T11:44:49;101187.25;;;7.36;100.00
70027;BME280;57506;50.092;15.804;2023-02-13T11:47:15;101177.25;;;7.38;100.00
70027;BME280;57506;50.092;15.804;2023-02-13T11:49:46;101185.78;;;7.44;100.00
70027;BME280;57506;50.092;15.804;2023-02-13T11:52:32;101182.25;;;7.43;100.00
70027;BME280;57506;50.092;15.804;2023-02-13T11:55:01;101165.56;;;7.40;100.00
70027;BME280;57506;50.092;15.804;2023-02-13T11:57:31;101181.84;;;7.59;100.00
70027;BME280;57506;50.092;15.804;2023-02-13T11:59:59;101175.75;;;7.57;100.00
70027;BME280;57506;50.092;15.804;2023-02-13T12:02:30;101172.25;;;7.34;100.00
70027;BME280;57506;50.092;15.804;2023-02-13T12:07:40;101158.72;;;7.35;100.00
70027;BME280;57506;50.092;15.804;2023-02-13T12:10:17;101166.91;;;7.45;100.00
70027;BME280;57506;50.092;15.804;2023-02-13T12:17:52;101154.91;;;7.49;100.00
70027;BME280;57506;50.092;15.804;2023-02-13T12:20:20;101144.06;;;7.51;100.00
70027;BME280;57506;50.092;15.804;2023-02-13T12:22:51;101152.47;;;7.57;100.00
70027;BME280;57506;50.092;15.804;2023-02-13T12:25:33;101147.44;;;7.64;100.00
70027;BME280;57506;50.092;15.804;2023-02-13T12:28:22;101140.03;;;7.56;100.00
70027;BME280;57506;50.092;15.804;2023-02-13T12:42:20;101137.47;;;7.55;100.00
70027;BME280;57506;50.092;15.804;2023-02-13T12:50:50;101127.19;;;7.28;100.00
70027;BME280;57506;50.092;15.804;2023-02-13T12:56:25;101116.19;;;7.31;100.00
70027;BME280;57506;50.092;15.804;2023-02-13T13:10:37;101123.91;;;7.24;100.00
70027;BME280;57506;50.092;15.804;2023-02-13T13:26:55;101113.53;;;7.20;100.00
70027;BME280;57506;50.092;15.804;2023-02-13T13:29:26;101126.09;;;7.19;100.00
70027;BME280;57506;50.092;15.804;2023-02-13T13:32:05;101108.22;;;7.09;100.00
70027;BME280;57506;50.092;15.804;2023-02-13T13:34:33;101120.84;;;7.18;100.00
70027;BME280;57506;50.092;15.804;2023-02-13T13:37:06;101117.72;;;7.13;100.00
70027;BME280;57506;50.092;15.804;2023-02-13T13:42:19;101126.34;;;7.16;100.00
70027;BME280;57506;50.092;15.804;2023-02-13T13:50:48;101103.47;;;7.12;100.00
70027;BME280;57506;50.092;15.804;2023-02-13T13:53:16;101121.25;;;7.13;100.00
70027;BME280;57506;50.092;15.804;2023-02-13T13:58:42;101128.78;;;7.19;100.00
70027;BME280;57506;50.092;15.804;2023-02-13T14:01:15;101122.69;;;7.17;100.00
70027;BME280;57506;50.092;15.804;2023-02-13T14:03:47;101117.81;;;7.22;100.00
70027;BME280;57506;50.092;15.804;2023-02-13T14:06:16;101124.88;;;7.23;100.00
70027;BME280;57506;50.092;15.804;2023-02-13T14:11:38;101116.00;;;7.12;100.00
70027;BME280;57506;50.092;15.804;2023-02-13T14:17:00;101107.38;;;7.08;100.00
70027;BME280;57506;50.092;15.804;2023-02-13T14:19:32;101109.06;;;7.09;100.00
70027;BME280;57506;50.092;15.804;2023-02-13T14:22:30;101102.00;;;7.08;100.00
70027;BME280;57506;50.092;15.804;2023-02-13T14:25:03;101107.00;;;7.01;100.00
70027;BME280;57506;50.092;15.804;2023-02-13T14:27:32;101107.84;;;7.02;100.00
70027;BME280;57506;50.092;15.804;2023-02-13T14:29:59;101101.06;;;6.98;100.00
70027;BME280;57506;50.092;15.804;2023-02-13T14:32:33;101110.06;;;6.97;100.00
70027;BME280;57506;50.092;15.804;2023-02-13T14:35:23;101093.00;;;6.87;100.00
70027;BME280;57506;50.092;15.804;2023-02-13T14:37:55;101102.50;;;6.91;100.00
70027;BME280;57506;50.092;15.804;2023-02-13T14:45:27;101102.03;;;6.86;100.00
70027;BME280;57506;50.092;15.804;2023-02-13T14:47:55;101108.97;;;6.88;100.00
70027;BME280;57506;50.092;15.804;2023-02-13T14:52:50;101101.69;;;6.79;100.00
70027;BME280;57506;50.092;15.804;2023-02-13T14:55:20;101101.91;;;6.76;100.00
70027;BME280;57506;50.092;15.804;2023-02-13T14:58:29;101070.38;;;6.57;100.00
70027;BME280;57506;50.092;15.804;2023-02-13T15:01:04;101096.91;;;6.72;100.00
70027;BME280;57506;50.092;15.804;2023-02-13T15:03:45;101085.97;;;6.63;100.00
70027;BME280;57506;50.092;15.804;2023-02-13T15:06:23;101098.63;;;6.61;100.00
70027;BME280;57506;50.092;15.804;2023-02-13T15:08:51;101089.13;;;6.57;100.00
70027;BME280;57506;50.092;15.804;2023-02-13T15:11:38;101091.69;;;6.59;100.00
70027;BME280;57506;50.092;15.804;2023-02-13T15:17:04;101091.81;;;6.46;100.00
70027;BME280;57506;50.092;15.804;2023-02-13T15:19:33;101074.63;;;6.38;100.00
70027;BME280;57506;50.092;15.804;2023-02-13T15:22:01;101077.44;;;6.36;100.00
70027;BME280;57506;50.092;15.804;2023-02-13T15:24:45;101081.56;;;6.40;100.00
70027;BME280;57506;50.092;15.804;2023-02-13T15:27:58;101070.38;;;6.35;100.00
70027;BME280;57506;50.092;15.804;2023-02-13T15:30:22;101053.81;;;6.19;100.00
70027;BME280;57506;50.092;15.804;2023-02-13T15:33:19;101072.56;;;6.30;100.00
70027;BME280;57506;50.092;15.804;2023-02-13T15:35:45;101069.41;;;6.25;100.00
70027;BME280;57506;50.092;15.804;2023-02-13T15:40:55;101036.16;;;6.05;100.00
70027;BME280;57506;50.092;15.804;2023-02-13T15:43:42;101043.59;;;6.13;100.00
70027;BME280;57506;50.092;15.804;2023-02-13T15:46:24;101039.34;;;6.10;100.00
70027;BME280;57506;50.092;15.804;2023-02-13T15:48:52;101037.00;;;6.06;100.00
70027;BME280;57506;50.092;15.804;2023-02-13T15:51:23;101029.09;;;5.93;100.00